createdAt,value
2019-05-06T00:00:34.199Z,1.30
2019-05-06T00:03:05.039Z,1.30
2019-05-06T00:05:34.095Z,1.30
2019-05-06T00:08:03.903Z,1.20
2019-05-06T00:10:34.155Z,1.20
2019-05-06T00:13:04.594Z,1.20
2019-05-06T00:15:34.264Z,1.20
2019-05-06T00:18:04.519Z,1.10
2019-05-06T00:20:34.757Z,1.10
2019-05-06T00:23:09.505Z,1.10
2019-05-06T00:25:45.271Z,1.10
2019-05-06T00:28:39.237Z,1.00
2019-05-06T00:31:27.720Z,1.00
2019-05-06T00:33:56.595Z,1.00
2019-05-06T00:36:25.362Z,0.90
2019-05-06T00:38:57.244Z,0.90
2019-05-06T00:41:28.360Z,0.80
2019-05-06T00:43:57.211Z,0.80
2019-05-06T00:46:26.198Z,0.80
2019-05-06T00:48:55.052Z,0.70
2019-05-06T00:51:24.326Z,0.70
2019-05-06T00:53:58.691Z,0.70
2019-05-06T00:56:27.968Z,0.60
2019-05-06T00:58:56.811Z,0.60
2019-05-06T01:01:29.388Z,0.60
2019-05-06T01:03:56.216Z,0.50
2019-05-06T01:06:25.469Z,0.50
2019-05-06T01:08:54.678Z,0.40
2019-05-06T01:11:24.000Z,0.40
2019-05-06T01:14:00.166Z,0.40
2019-05-06T01:16:29.307Z,0.30
2019-05-06T01:18:58.192Z,0.30
2019-05-06T01:21:27.291Z,0.30
2019-05-06T01:23:56.105Z,0.30
2019-05-06T01:26:24.971Z,0.30
2019-05-06T01:28:54.622Z,0.20
2019-05-06T01:31:25.995Z,0.20
2019-05-06T01:33:54.614Z,0.20
2019-05-06T01:36:24.969Z,0.20
2019-05-06T01:39:13.881Z,0.10
2019-05-06T01:42:04.280Z,0.10
2019-05-06T01:44:33.945Z,0.10
2019-05-06T01:47:03.802Z,0.10
2019-05-06T01:49:34.003Z,0.00
2019-05-06T01:52:04.091Z,0.00
2019-05-06T01:54:34.336Z,0.00
2019-05-06T01:57:04.438Z,0.00
2019-05-06T01:59:34.172Z,-0.10
2019-05-06T02:02:04.350Z,-0.10
2019-05-06T02:04:33.843Z,-0.10
2019-05-06T02:07:03.856Z,-0.10
2019-05-06T02:09:34.314Z,-0.20
2019-05-06T02:12:04.534Z,-0.20
2019-05-06T02:14:34.282Z,-0.20
2019-05-06T02:17:03.739Z,-0.20
2019-05-06T02:19:34.788Z,-0.20
2019-05-06T02:22:25.251Z,-0.20
2019-05-06T02:24:57.888Z,-0.20
2019-05-06T02:27:26.747Z,-0.20
2019-05-06T02:30:15.275Z,-0.20
2019-05-06T02:32:55.747Z,-0.30
2019-05-06T02:35:48.919Z,-0.30
2019-05-06T02:38:39.071Z,-0.30
2019-05-06T02:41:03.191Z,-0.30
2019-05-06T02:43:34.413Z,-0.30
2019-05-06T02:46:04.200Z,-0.30
2019-05-06T02:48:57.843Z,-0.40
2019-05-06T02:51:28.152Z,-0.30
2019-05-06T02:53:57.016Z,-0.30
2019-05-06T02:56:25.801Z,-0.40
2019-05-06T02:58:54.774Z,-0.30
2019-05-06T03:01:23.721Z,-0.30
2019-05-06T03:03:53.714Z,-0.30
2019-05-06T03:06:23.872Z,-0.30
2019-05-06T03:08:54.113Z,-0.40
2019-05-06T03:11:24.141Z,-0.30
2019-05-06T03:14:13.949Z,-0.30
2019-05-06T03:16:43.911Z,-0.30
2019-05-06T03:19:13.581Z,-0.30
2019-05-06T03:22:09.677Z,-0.30
2019-05-06T03:24:43.786Z,-0.30
2019-05-06T03:27:14.291Z,-0.30
2019-05-06T03:29:44.447Z,-0.30
2019-05-06T03:32:16.606Z,-0.30
2019-05-06T03:35:01.312Z,-0.30
2019-05-06T03:37:17.215Z,-0.30
2019-05-06T03:39:46.043Z,-0.30
2019-05-06T03:42:16.739Z,-0.30
2019-05-06T03:44:48.104Z,-0.30
2019-05-06T03:47:54.262Z,-0.30
2019-05-06T03:50:24.033Z,-0.30
2019-05-06T03:52:55.938Z,-0.30
2019-05-06T03:55:23.576Z,-0.30
2019-05-06T03:57:53.854Z,-0.30
2019-05-06T04:00:23.822Z,-0.30
2019-05-06T04:02:53.666Z,-0.20
2019-05-06T04:05:23.862Z,-0.20
2019-05-06T04:07:54.975Z,-0.20
2019-05-06T04:10:43.676Z,-0.20
2019-05-06T04:13:13.426Z,-0.10
2019-05-06T04:15:59.111Z,0.00
2019-05-06T04:18:28.721Z,0.10
2019-05-06T04:21:08.910Z,0.20
2019-05-06T04:24:06.237Z,0.30
2019-05-06T04:26:55.799Z,0.40
2019-05-06T04:29:28.119Z,0.50
2019-05-06T04:31:56.992Z,0.50
2019-05-06T04:34:25.999Z,0.70
2019-05-06T04:36:54.798Z,0.80
2019-05-06T04:39:23.723Z,0.90
2019-05-06T04:41:57.024Z,1.10
2019-05-06T04:44:25.983Z,1.30
2019-05-06T04:46:55.449Z,1.50
2019-05-06T04:49:24.431Z,1.60
2019-05-06T04:51:54.084Z,1.80
2019-05-06T04:54:26.136Z,2.00
2019-05-06T04:56:54.116Z,2.20
2019-05-06T04:59:23.432Z,2.30
2019-05-06T05:01:53.510Z,2.40
2019-05-06T05:04:31.707Z,2.50
2019-05-06T05:06:53.389Z,2.50
2019-05-06T05:09:23.159Z,2.60
2019-05-06T05:11:56.765Z,2.70
2019-05-06T05:14:34.080Z,2.70
2019-05-06T05:17:19.949Z,2.80
2019-05-06T05:19:48.832Z,2.80
2019-05-06T05:22:17.719Z,2.90
2019-05-06T05:24:46.534Z,2.90
2019-05-06T05:27:15.396Z,3.00
2019-05-06T05:29:44.724Z,3.10
2019-05-06T05:32:13.822Z,3.10
2019-05-06T05:34:43.581Z,3.20
2019-05-06T05:37:12.543Z,3.30
2019-05-06T05:39:42.587Z,3.40
2019-05-06T05:42:29.302Z,3.50
2019-05-06T05:44:58.168Z,3.50
2019-05-06T05:47:26.957Z,3.60
2019-05-06T05:50:15.328Z,3.70
2019-05-06T05:52:44.230Z,3.80
2019-05-06T05:55:13.103Z,3.90
2019-05-06T05:57:43.264Z,4.10
2019-05-06T06:00:12.998Z,4.20
2019-05-06T06:02:43.711Z,4.40
2019-05-06T06:05:12.801Z,4.50
2019-05-06T06:07:42.222Z,4.70
2019-05-06T06:10:19.149Z,4.80
2019-05-06T06:12:47.948Z,5.00
2019-05-06T06:15:52.170Z,5.10
2019-05-06T06:18:33.840Z,5.30
2019-05-06T06:21:36.875Z,5.50
2019-05-06T06:24:15.191Z,5.70
2019-05-06T06:26:44.060Z,5.90
2019-05-06T06:29:12.900Z,6.10
2019-05-06T06:32:05.758Z,6.20
2019-05-06T06:34:42.550Z,6.40
2019-05-06T06:37:28.573Z,6.70
2019-05-06T06:39:58.039Z,6.80
2019-05-06T06:42:26.881Z,6.90
2019-05-06T06:44:55.678Z,6.90
2019-05-06T06:47:24.532Z,7.00
2019-05-06T06:49:53.605Z,7.00
2019-05-06T06:52:23.271Z,7.00
2019-05-06T06:54:52.893Z,7.00
2019-05-06T06:57:56.445Z,6.90
2019-05-06T07:00:37.996Z,6.90
2019-05-06T07:03:12.307Z,7.00
2019-05-06T07:06:06.636Z,7.00
2019-05-06T07:08:37.676Z,7.00
2019-05-06T07:11:06.315Z,7.10
2019-05-06T07:13:35.255Z,7.10
2019-05-06T07:16:04.049Z,7.20
2019-05-06T07:18:33.288Z,7.30
2019-05-06T07:21:14.531Z,7.40
2019-05-06T07:23:43.411Z,7.50
2019-05-06T07:26:13.944Z,7.70
2019-05-06T07:28:43.701Z,7.80
2019-05-06T07:31:21.816Z,8.10
2019-05-06T07:33:43.357Z,8.10
2019-05-06T07:36:13.057Z,8.00
2019-05-06T07:38:49.884Z,7.90
2019-05-06T07:41:24.483Z,7.80
2019-05-06T07:44:18.137Z,7.60
2019-05-06T07:46:52.626Z,7.60
2019-05-06T07:49:23.525Z,7.50
2019-05-06T07:51:53.091Z,7.60
2019-05-06T07:54:22.145Z,7.60
2019-05-06T07:56:52.626Z,7.70
2019-05-06T07:59:22.527Z,7.80
2019-05-06T08:01:53.856Z,7.90
2019-05-06T08:04:23.070Z,8.20
2019-05-06T08:06:52.369Z,8.30
2019-05-06T08:09:22.130Z,8.50
2019-05-06T08:11:53.053Z,8.60
2019-05-06T08:14:22.560Z,8.70
2019-05-06T08:17:02.456Z,8.70
2019-05-06T08:19:33.487Z,8.70
2019-05-06T08:22:03.840Z,8.70
2019-05-06T08:24:33.275Z,8.60
2019-05-06T08:27:03.227Z,8.50
2019-05-06T08:29:33.096Z,8.50
2019-05-06T08:32:02.913Z,8.50
2019-05-06T08:34:33.983Z,8.50
2019-05-06T08:37:08.112Z,8.60
2019-05-06T08:39:37.133Z,8.60
2019-05-06T08:42:05.990Z,8.70
2019-05-06T08:44:35.107Z,8.70
2019-05-06T08:47:03.880Z,8.70
2019-05-06T08:49:52.789Z,8.70
2019-05-06T08:52:23.935Z,8.70
2019-05-06T08:54:54.783Z,8.70
2019-05-06T08:57:23.568Z,8.60
2019-05-06T08:59:53.646Z,8.60
2019-05-06T09:02:24.104Z,8.60
2019-05-06T09:04:53.020Z,8.60
2019-05-06T09:07:23.742Z,8.70
2019-05-06T09:09:52.779Z,8.80
2019-05-06T09:12:22.421Z,9.00
2019-05-06T09:14:53.244Z,9.20
2019-05-06T09:17:22.593Z,9.30
2019-05-06T09:19:53.442Z,9.50
2019-05-06T09:22:23.521Z,9.60
2019-05-06T09:24:53.121Z,9.50
2019-05-06T09:27:42.148Z,9.50
2019-05-06T09:30:33.567Z,9.40
2019-05-06T09:33:02.675Z,9.30
2019-05-06T09:35:32.904Z,9.30
2019-05-06T09:38:02.275Z,9.20
2019-05-06T09:40:31.884Z,9.10
2019-05-06T09:43:04.452Z,9.10
2019-05-06T09:45:33.046Z,9.00
2019-05-06T09:48:22.306Z,8.90
2019-05-06T09:50:53.502Z,8.90
2019-05-06T09:53:27.190Z,8.80
2019-05-06T09:56:19.487Z,8.80
2019-05-06T09:58:48.622Z,8.60
2019-05-06T10:01:17.619Z,8.30
2019-05-06T10:03:46.501Z,8.10
2019-05-06T10:06:15.407Z,8.00
2019-05-06T10:08:44.288Z,8.00
2019-05-06T10:11:13.107Z,8.10
2019-05-06T10:13:43.093Z,8.10
2019-05-06T10:16:13.014Z,8.20
2019-05-06T10:18:42.033Z,8.40
2019-05-06T10:21:12.524Z,8.60
2019-05-06T10:23:42.287Z,8.80
2019-05-06T10:26:12.948Z,9.00
2019-05-06T10:28:52.147Z,9.20
2019-05-06T10:31:21.958Z,9.50
2019-05-06T10:34:08.774Z,9.80
2019-05-06T10:36:53.806Z,9.90
2019-05-06T10:39:24.016Z,9.90
2019-05-06T10:41:56.799Z,9.80
2019-05-06T10:44:32.972Z,9.60
2019-05-06T10:47:02.930Z,9.40
2019-05-06T10:49:33.708Z,9.30
2019-05-06T10:52:21.791Z,9.10
2019-05-06T10:54:50.357Z,8.90
2019-05-06T10:57:40.394Z,8.80
2019-05-06T11:00:08.892Z,8.50
2019-05-06T11:02:59.568Z,8.20
2019-05-06T11:05:28.793Z,8.00
2019-05-06T11:07:57.645Z,7.70
2019-05-06T11:10:30.037Z,7.40
2019-05-06T11:12:57.084Z,7.10
2019-05-06T11:15:25.879Z,6.90
2019-05-06T11:17:54.931Z,6.60
2019-05-06T11:20:24.299Z,6.50
2019-05-06T11:22:53.250Z,6.40
2019-05-06T11:25:23.042Z,6.40
2019-05-06T11:27:52.789Z,6.50
2019-05-06T11:30:39.581Z,6.60
2019-05-06T11:33:32.777Z,6.70
2019-05-06T11:36:09.294Z,6.90
2019-05-06T11:38:38.164Z,6.90
2019-05-06T11:41:06.990Z,6.90
2019-05-06T11:43:35.803Z,7.00
2019-05-06T11:46:04.861Z,7.20
2019-05-06T11:48:33.754Z,7.30
2019-05-06T11:51:04.272Z,7.40
2019-05-06T11:53:33.047Z,7.60
2019-05-06T11:56:02.268Z,7.70
2019-05-06T11:58:53.136Z,7.80
2019-05-06T12:01:47.108Z,7.90
2019-05-06T12:04:15.893Z,7.90
2019-05-06T12:06:44.942Z,7.90
2019-05-06T12:09:16.767Z,8.00
2019-05-06T12:11:44.453Z,8.10
2019-05-06T12:14:13.338Z,8.10
2019-05-06T12:16:42.120Z,7.90
2019-05-06T12:19:13.075Z,7.80
2019-05-06T12:21:43.122Z,7.60
2019-05-06T12:24:12.325Z,7.50
2019-05-06T12:26:42.881Z,7.50
2019-05-06T12:29:12.656Z,7.60
2019-05-06T12:31:42.253Z,7.70
2019-05-06T12:34:12.502Z,7.80
2019-05-06T12:36:42.748Z,7.90
2019-05-06T12:39:22.936Z,7.80
2019-05-06T12:42:16.010Z,7.80
2019-05-06T12:44:57.204Z,7.80
2019-05-06T12:47:34.905Z,7.80
2019-05-06T12:50:04.449Z,7.90
2019-05-06T12:52:33.532Z,7.90
2019-05-06T12:55:16.871Z,8.00
2019-05-06T12:57:34.512Z,7.90
2019-05-06T13:00:03.900Z,7.80
2019-05-06T13:02:32.890Z,7.80
2019-05-06T13:05:04.056Z,7.70
2019-05-06T13:07:38.486Z,7.70
2019-05-06T13:10:07.828Z,7.70
2019-05-06T13:12:38.287Z,7.70
2019-05-06T13:15:08.125Z,7.80
2019-05-06T13:17:37.252Z,7.90
2019-05-06T13:20:06.481Z,8.00
2019-05-06T13:22:43.736Z,8.00
2019-05-06T13:25:13.549Z,8.00
2019-05-06T13:27:43.143Z,8.00
2019-05-06T13:30:12.921Z,8.00
2019-05-06T13:32:46.444Z,8.00
2019-05-06T13:35:15.236Z,8.00
2019-05-06T13:37:44.097Z,8.10
2019-05-06T13:40:13.318Z,8.30
2019-05-06T13:42:45.183Z,8.40
2019-05-06T13:45:14.392Z,8.50
2019-05-06T13:48:03.731Z,8.50
2019-05-06T13:50:33.123Z,8.50
2019-05-06T13:53:11.551Z,8.40
2019-05-06T13:55:36.460Z,8.20
2019-05-06T13:58:05.393Z,8.20
2019-05-06T14:00:36.796Z,8.20
2019-05-06T14:03:05.940Z,8.30
2019-05-06T14:05:34.872Z,8.30
2019-05-06T14:08:04.769Z,8.30
2019-05-06T14:10:33.840Z,8.30
2019-05-06T14:13:02.844Z,8.30
2019-05-06T14:15:32.575Z,8.40
2019-05-06T14:18:02.727Z,8.30
2019-05-06T14:20:33.524Z,8.30
2019-05-06T14:23:05.506Z,8.30
2019-05-06T14:25:56.277Z,8.20
2019-05-06T14:28:34.134Z,8.20
2019-05-06T14:31:06.980Z,8.10
2019-05-06T14:33:35.790Z,8.10
2019-05-06T14:36:04.687Z,8.00
2019-05-06T14:38:33.646Z,8.00
2019-05-06T14:41:26.945Z,7.80
2019-05-06T14:43:53.705Z,7.80
2019-05-06T14:46:23.411Z,7.40
2019-05-06T14:48:53.388Z,7.20
2019-05-06T14:51:22.673Z,7.00
2019-05-06T14:53:53.139Z,6.80
2019-05-06T14:56:38.336Z,6.80
2019-05-06T14:59:07.861Z,6.80
2019-05-06T15:01:38.253Z,6.70
2019-05-06T15:04:07.817Z,6.80
2019-05-06T15:06:36.714Z,6.80
2019-05-06T15:09:07.565Z,6.90
2019-05-06T15:11:36.703Z,6.90
2019-05-06T15:14:06.045Z,6.90
2019-05-06T15:16:35.389Z,6.90
2019-05-06T15:19:05.142Z,6.90
2019-05-06T15:21:38.346Z,6.90
2019-05-06T15:24:05.158Z,6.90
2019-05-06T15:26:34.115Z,6.90
2019-05-06T15:29:03.452Z,6.90
2019-05-06T15:32:02.574Z,6.90
2019-05-06T15:34:39.046Z,6.90
2019-05-06T15:37:17.352Z,6.90
2019-05-06T15:39:46.222Z,6.90
2019-05-06T15:42:15.201Z,6.90
2019-05-06T15:44:44.066Z,7.00
2019-05-06T15:47:13.405Z,7.00
2019-05-06T15:49:42.390Z,7.00
2019-05-06T15:52:12.480Z,7.00
2019-05-06T15:54:43.105Z,7.00
2019-05-06T15:57:12.084Z,6.90
2019-05-06T15:59:43.964Z,6.70
2019-05-06T16:02:11.860Z,6.60
2019-05-06T16:04:42.993Z,6.50
2019-05-06T16:07:12.691Z,6.30
2019-05-06T16:09:42.906Z,6.20
2019-05-06T16:12:12.729Z,6.20
2019-05-06T16:14:42.483Z,6.20
2019-05-06T16:17:12.347Z,6.20
2019-05-06T16:19:42.686Z,6.20
2019-05-06T16:22:11.742Z,6.20
2019-05-06T16:24:45.317Z,6.30
2019-05-06T16:27:14.185Z,6.30
2019-05-06T16:29:43.412Z,6.30
2019-05-06T16:32:12.197Z,6.30
2019-05-06T16:34:44.559Z,6.40
2019-05-06T16:37:13.700Z,6.40
2019-05-06T16:39:42.584Z,6.50
2019-05-06T16:42:12.858Z,6.50
2019-05-06T16:44:45.166Z,6.50
2019-05-06T16:47:19.789Z,6.50
2019-05-06T16:49:48.676Z,6.60
2019-05-06T16:52:17.636Z,6.60
2019-05-06T16:54:46.678Z,6.60
2019-05-06T16:57:18.924Z,6.60
2019-05-06T16:59:47.788Z,6.70
2019-05-06T17:02:23.279Z,6.60
2019-05-06T17:05:12.484Z,6.70
2019-05-06T17:07:42.253Z,6.70
2019-05-06T17:10:11.884Z,6.70
2019-05-06T17:12:40.916Z,6.70
2019-05-06T17:15:09.742Z,6.70
2019-05-06T17:17:43.729Z,6.70
2019-05-06T17:20:11.679Z,6.60
2019-05-06T17:22:42.255Z,6.60
2019-05-06T17:25:11.493Z,6.60
2019-05-06T17:27:43.397Z,6.60
2019-05-06T17:30:25.252Z,6.50
2019-05-06T17:32:58.574Z,6.50
2019-05-06T17:35:27.413Z,6.50
2019-05-06T17:38:16.260Z,6.40
2019-05-06T17:40:45.079Z,6.40
2019-05-06T17:43:14.015Z,6.40
2019-05-06T17:46:01.741Z,6.40
2019-05-06T17:48:34.604Z,6.40
2019-05-06T17:51:28.599Z,6.40
2019-05-06T17:53:58.675Z,6.40
2019-05-06T17:56:27.501Z,6.40
2019-05-06T17:58:56.305Z,6.30
2019-05-06T18:01:32.657Z,6.30
2019-05-06T18:04:02.287Z,6.30
2019-05-06T18:06:33.001Z,6.30
2019-05-06T18:09:02.618Z,6.30
2019-05-06T18:11:33.268Z,6.30
2019-05-06T18:14:04.020Z,6.20
2019-05-06T18:16:33.709Z,6.20
2019-05-06T18:19:03.249Z,6.20
2019-05-06T18:21:32.199Z,6.20
2019-05-06T18:24:03.009Z,6.20
2019-05-06T18:26:33.377Z,6.20
2019-05-06T18:29:02.344Z,6.20
2019-05-06T18:31:33.507Z,6.20
2019-05-06T18:34:03.012Z,6.20
2019-05-06T18:36:32.793Z,6.20
2019-05-06T18:39:03.302Z,6.20
2019-05-06T18:41:33.174Z,6.20
2019-05-06T18:44:02.484Z,6.10
2019-05-06T18:46:32.365Z,6.10
2019-05-06T18:49:02.549Z,6.10
2019-05-06T18:51:31.536Z,6.10
2019-05-06T18:54:02.934Z,6.10
2019-05-06T18:56:31.982Z,6.10
2019-05-06T18:59:02.845Z,6.10
2019-05-06T19:01:33.167Z,6.10
2019-05-06T19:04:26.229Z,6.10
2019-05-06T19:07:09.580Z,6.10
2019-05-06T19:09:42.361Z,6.00
2019-05-06T19:12:12.757Z,6.00
2019-05-06T19:14:43.263Z,6.00
2019-05-06T19:17:13.156Z,6.00
2019-05-06T19:19:42.780Z,5.90
2019-05-06T19:22:13.925Z,6.00
2019-05-06T19:24:44.676Z,5.90
2019-05-06T19:27:13.101Z,5.90
2019-05-06T19:29:43.303Z,5.90
2019-05-06T19:32:12.613Z,5.90
2019-05-06T19:34:42.231Z,5.90
2019-05-06T19:37:11.648Z,5.80
2019-05-06T19:39:42.883Z,5.80
2019-05-06T19:42:12.881Z,5.80
2019-05-06T19:44:43.195Z,5.80
2019-05-06T19:47:13.254Z,5.80
2019-05-06T19:49:42.508Z,5.80
2019-05-06T19:52:11.811Z,5.80
2019-05-06T19:54:42.497Z,5.80
2019-05-06T19:57:12.446Z,5.80
2019-05-06T19:59:48.193Z,5.70
2019-05-06T20:02:17.019Z,5.70
2019-05-06T20:04:48.228Z,5.70
2019-05-06T20:07:38.988Z,5.70
2019-05-06T20:10:26.909Z,5.70
2019-05-06T20:13:15.031Z,5.70
2019-05-06T20:15:43.864Z,5.60
2019-05-06T20:18:12.826Z,5.60
2019-05-06T20:20:42.312Z,5.60
2019-05-06T20:23:12.570Z,5.60
2019-05-06T20:25:42.597Z,5.50
2019-05-06T20:28:13.171Z,5.50
2019-05-06T20:30:42.469Z,5.50
2019-05-06T20:33:12.433Z,5.50
2019-05-06T20:35:43.181Z,5.40
2019-05-06T20:38:12.476Z,5.40
2019-05-06T20:40:43.126Z,5.40
2019-05-06T20:43:19.656Z,5.40
2019-05-06T20:45:43.073Z,5.30
2019-05-06T20:48:12.891Z,5.30
2019-05-06T20:50:45.290Z,5.30
2019-05-06T20:53:14.450Z,5.30
2019-05-06T20:55:43.642Z,5.20
2019-05-06T20:58:12.502Z,5.20
2019-05-06T21:00:42.970Z,5.20
2019-05-06T21:03:12.360Z,5.10
2019-05-06T21:05:43.467Z,5.10
2019-05-06T21:08:12.982Z,5.10
2019-05-06T21:10:42.705Z,5.10
2019-05-06T21:13:13.300Z,5.00
